sensor_id;sensor_type;location;lat;lon;timestamp;pressure;altitude;pressure_sealevel;temperature;humidity
38022;BME280;23832;43.216;27.946;2023-03-22T00:00:06;100719.00;;;12.88;100.00
38022;BME280;23832;43.216;27.946;2023-03-22T00:02:12;100713.44;;;12.83;100.00
38022;BME280;23832;43.216;27.946;2023-03-22T00:04:14;100717.91;;;12.83;100.00
38022;BME280;23832;43.216;27.946;2023-03-22T00:06:16;100714.00;;;12.78;100.00
38022;BME280;23832;43.216;27.946;2023-03-22T00:08:18;100716.88;;;12.84;100.00
38022;BME280;23832;43.216;27.946;2023-03-22T00:10:21;100715.25;;;12.83;100.00
38022;BME280;23832;43.216;27.946;2023-03-22T00:12:23;100714.91;;;12.71;100.00
38022;BME280;23832;43.216;27.946;2023-03-22T00:14:26;100712.72;;;12.74;100.00
38022;BME280;23832;43.216;27.946;2023-03-22T00:16:28;100710.88;;;12.75;100.00
38022;BME280;23832;43.216;27.946;2023-03-22T00:18:30;100708.63;;;12.72;100.00
38022;BME280;23832;43.216;27.946;2023-03-22T00:20:32;100702.69;;;12.70;100.00
38022;BME280;23832;43.216;27.946;2023-03-22T00:22:36;100712.53;;;12.76;100.00
38022;BME280;23832;43.216;27.946;2023-03-22T00:24:38;100706.97;;;12.71;100.00
38022;BME280;23832;43.216;27.946;2023-03-22T00:26:40;100711.91;;;12.74;100.00
38022;BME280;23832;43.216;27.946;2023-03-22T00:28:42;100712.38;;;12.77;100.00
38022;BME280;23832;43.216;27.946;2023-03-22T00:30:52;100693.47;;;12.66;100.00
38022;BME280;23832;43.216;27.946;2023-03-22T00:32:54;100710.44;;;12.57;100.00
38022;BME280;23832;43.216;27.946;2023-03-22T00:34:56;100706.06;;;12.64;100.00
38022;BME280;23832;43.216;27.946;2023-03-22T00:36:58;100710.44;;;12.71;100.00
38022;BME280;23832;43.216;27.946;2023-03-22T00:39:00;100705.44;;;12.76;100.00
38022;BME280;23832;43.216;27.946;2023-03-22T00:41:06;100691.75;;;12.73;100.00
38022;BME280;23832;43.216;27.946;2023-03-22T00:43:09;100692.56;;;12.73;100.00
38022;BME280;23832;43.216;27.946;2023-03-22T00:45:11;100683.41;;;12.76;100.00
38022;BME280;23832;43.216;27.946;2023-03-22T00:47:14;100681.78;;;12.75;100.00
38022;BME280;23832;43.216;27.946;2023-03-22T00:49:16;100677.59;;;12.81;100.00
38022;BME280;23832;43.216;27.946;2023-03-22T00:51:19;100683.97;;;12.86;100.00
38022;BME280;23832;43.216;27.946;2023-03-22T00:53:21;100687.25;;;12.88;100.00
38022;BME280;23832;43.216;27.946;2023-03-22T00:55:22;100678.50;;;12.73;100.00
38022;BME280;23832;43.216;27.946;2023-03-22T00:57:24;100685.53;;;12.81;100.00
38022;BME280;23832;43.216;27.946;2023-03-22T00:59:26;100679.13;;;12.75;100.00
38022;BME280;23832;43.216;27.946;2023-03-22T01:01:29;100675.31;;;12.77;100.00
38022;BME280;23832;43.216;27.946;2023-03-22T01:03:32;100673.31;;;12.79;100.00
38022;BME280;23832;43.216;27.946;2023-03-22T01:05:34;100671.16;;;12.68;100.00
38022;BME280;23832;43.216;27.946;2023-03-22T01:07:36;100669.78;;;12.58;100.00
38022;BME280;23832;43.216;27.946;2023-03-22T01:09:41;100661.59;;;12.53;100.00
38022;BME280;23832;43.216;27.946;2023-03-22T01:11:42;100654.59;;;12.45;100.00
38022;BME280;23832;43.216;27.946;2023-03-22T01:13:45;100658.56;;;12.56;100.00
38022;BME280;23832;43.216;27.946;2023-03-22T01:15:49;100650.63;;;12.56;100.00
38022;BME280;23832;43.216;27.946;2023-03-22T01:17:51;100650.53;;;12.64;100.00
38022;BME280;23832;43.216;27.946;2023-03-22T01:19:54;100650.31;;;12.80;100.00
38022;BME280;23832;43.216;27.946;2023-03-22T01:21:56;100659.44;;;12.77;100.00
38022;BME280;23832;43.216;27.946;2023-03-22T01:23:58;100648.50;;;12.66;100.00
38022;BME280;23832;43.216;27.946;2023-03-22T01:26:00;100645.31;;;12.70;100.00
38022;BME280;23832;43.216;27.946;2023-03-22T01:28:03;100654.91;;;12.71;100.00
38022;BME280;23832;43.216;27.946;2023-03-22T01:30:07;100660.19;;;12.71;100.00
38022;BME280;23832;43.216;27.946;2023-03-22T01:32:09;100657.88;;;12.83;100.00
38022;BME280;23832;43.216;27.946;2023-03-22T01:34:11;100665.19;;;12.81;100.00
38022;BME280;23832;43.216;27.946;2023-03-22T01:36:14;100666.38;;;12.78;100.00
38022;BME280;23832;43.216;27.946;2023-03-22T01:38:16;100671.69;;;12.64;100.00
38022;BME280;23832;43.216;27.946;2023-03-22T01:40:18;100676.16;;;12.63;100.00
38022;BME280;23832;43.216;27.946;2023-03-22T01:42:20;100668.91;;;12.87;100.00
38022;BME280;23832;43.216;27.946;2023-03-22T01:44:23;100672.56;;;12.86;100.00
38022;BME280;23832;43.216;27.946;2023-03-22T01:46:25;100668.91;;;12.87;100.00
38022;BME280;23832;43.216;27.946;2023-03-22T01:48:29;100667.56;;;12.76;100.00
38022;BME280;23832;43.216;27.946;2023-03-22T01:50:33;100671.88;;;12.77;100.00
38022;BME280;23832;43.216;27.946;2023-03-22T01:52:39;100664.56;;;12.79;100.00
38022;BME280;23832;43.216;27.946;2023-03-22T01:54:43;100668.22;;;12.78;100.00
38022;BME280;23832;43.216;27.946;2023-03-22T01:56:46;100669.66;;;12.81;100.00
38022;BME280;23832;43.216;27.946;2023-03-22T01:58:49;100664.56;;;12.79;100.00
38022;BME280;23832;43.216;27.946;2023-03-22T02:00:52;100674.91;;;12.95;100.00
38022;BME280;23832;43.216;27.946;2023-03-22T02:02:55;100674.41;;;12.85;100.00
38022;BME280;23832;43.216;27.946;2023-03-22T02:04:57;100670.03;;;12.77;100.00
38022;BME280;23832;43.216;27.946;2023-03-22T02:07:01;100678.13;;;12.76;100.00
38022;BME280;23832;43.216;27.946;2023-03-22T02:09:12;100673.50;;;12.63;100.00
38022;BME280;23832;43.216;27.946;2023-03-22T02:11:27;100683.06;;;12.79;100.00
38022;BME280;23832;43.216;27.946;2023-03-22T02:13:41;100675.25;;;12.71;100.00
38022;BME280;23832;43.216;27.946;2023-03-22T02:15:54;100674.44;;;12.70;100.00
38022;BME280;23832;43.216;27.946;2023-03-22T02:18:15;100682.59;;;12.75;100.00
38022;BME280;23832;43.216;27.946;2023-03-22T02:20:45;100690.72;;;12.74;100.00
38022;BME280;23832;43.216;27.946;2023-03-22T02:23:13;100692.31;;;12.68;100.00
38022;BME280;23832;43.216;27.946;2023-03-22T02:25:45;100683.56;;;12.53;100.00
38022;BME280;23832;43.216;27.946;2023-03-22T02:28:19;100693.31;;;12.53;100.00
38022;BME280;23832;43.216;27.946;2023-03-22T02:30:49;100697.69;;;12.60;100.00
38022;BME280;23832;43.216;27.946;2023-03-22T02:35:43;100703.53;;;12.56;100.00
38022;BME280;23832;43.216;27.946;2023-03-22T02:38:06;100703.81;;;12.46;100.00
38022;BME280;23832;43.216;27.946;2023-03-22T02:40:16;100701.69;;;12.71;100.00
38022;BME280;23832;43.216;27.946;2023-03-22T02:42:36;100694.00;;;12.76;100.00
38022;BME280;23832;43.216;27.946;2023-03-22T02:44:43;100688.91;;;12.74;100.00
38022;BME280;23832;43.216;27.946;2023-03-22T02:46:52;100709.72;;;12.77;100.00
38022;BME280;23832;43.216;27.946;2023-03-22T02:49:03;100684.63;;;12.73;100.00
38022;BME280;23832;43.216;27.946;2023-03-22T02:51:11;100692.94;;;12.70;100.00
38022;BME280;23832;43.216;27.946;2023-03-22T02:53:19;100682.94;;;12.36;100.00
38022;BME280;23832;43.216;27.946;2023-03-22T02:55:28;100700.69;;;12.72;100.00
38022;BME280;23832;43.216;27.946;2023-03-22T02:57:34;100709.22;;;12.23;100.00
38022;BME280;23832;43.216;27.946;2023-03-22T02:59:39;100708.66;;;12.42;100.00
38022;BME280;23832;43.216;27.946;2023-03-22T03:01:44;100709.44;;;12.58;100.00
38022;BME280;23832;43.216;27.946;2023-03-22T03:03:48;100713.53;;;12.75;100.00
38022;BME280;23832;43.216;27.946;2023-03-22T03:05:54;100717.94;;;12.68;100.00
38022;BME280;23832;43.216;27.946;2023-03-22T03:07:59;100671.09;;;12.32;100.00
38022;BME280;23832;43.216;27.946;2023-03-22T03:10:04;100709.47;;;12.43;100.00
38022;BME280;23832;43.216;27.946;2023-03-22T03:12:13;100709.66;;;12.41;100.00
38022;BME280;23832;43.216;27.946;2023-03-22T03:14:22;100707.09;;;12.48;100.00
38022;BME280;23832;43.216;27.946;2023-03-22T03:16:26;100710.00;;;12.53;100.00
38022;BME280;23832;43.216;27.946;2023-03-22T03:18:38;100709.44;;;12.58;100.00
38022;BME280;23832;43.216;27.946;2023-03-22T03:20:53;100716.22;;;12.45;100.00
38022;BME280;23832;43.216;27.946;2023-03-22T03:23:11;100716.66;;;12.49;100.00
38022;BME280;23832;43.216;27.946;2023-03-22T03:25:19;100711.00;;;12.37;100.00
38022;BME280;23832;43.216;27.946;2023-03-22T03:27:31;100714.66;;;12.36;100.00
38022;BME280;23832;43.216;27.946;2023-03-22T03:29:39;100721.25;;;12.40;100.00
38022;BME280;23832;43.216;27.946;2023-03-22T03:31:46;100713.56;;;12.45;100.00
38022;BME280;23832;43.216;27.946;2023-03-22T03:33:56;100722.59;;;12.51;100.00
38022;BME280;23832;43.216;27.946;2023-03-22T03:36:03;100711.56;;;12.47;100.00
38022;BME280;23832;43.216;27.946;2023-03-22T03:38:09;100712.66;;;12.53;100.00
38022;BME280;23832;43.216;27.946;2023-03-22T03:40:16;100719.13;;;12.50;100.00
38022;BME280;23832;43.216;27.946;2023-03-22T03:42:22;100720.31;;;12.48;100.00
38022;BME280;23832;43.216;27.946;2023-03-22T03:44:29;100714.94;;;12.41;100.00
38022;BME280;23832;43.216;27.946;2023-03-22T03:46:31;100724.53;;;12.42;100.00
38022;BME280;23832;43.216;27.946;2023-03-22T03:48:34;100722.16;;;12.33;100.00
38022;BME280;23832;43.216;27.946;2023-03-22T03:50:38;100724.31;;;12.29;100.00
38022;BME280;23832;43.216;27.946;2023-03-22T03:52:40;100719.41;;;12.26;100.00
38022;BME280;23832;43.216;27.946;2023-03-22T03:54:42;100730.63;;;12.28;100.00
38022;BME280;23832;43.216;27.946;2023-03-22T03:56:45;100727.97;;;12.28;100.00
38022;BME280;23832;43.216;27.946;2023-03-22T03:58:48;100724.06;;;12.24;100.00
38022;BME280;23832;43.216;27.946;2023-03-22T04:00:51;100731.25;;;12.30;100.00
38022;BME280;23832;43.216;27.946;2023-03-22T04:02:54;100733.47;;;12.41;100.00
38022;BME280;23832;43.216;27.946;2023-03-22T04:04:55;100729.63;;;12.59;100.00
38022;BME280;23832;43.216;27.946;2023-03-22T04:06:59;100740.56;;;12.56;100.00
38022;BME280;23832;43.216;27.946;2023-03-22T04:09:02;100744.75;;;12.65;100.00
38022;BME280;23832;43.216;27.946;2023-03-22T04:11:05;100738.53;;;12.58;100.00
38022;BME280;23832;43.216;27.946;2023-03-22T04:13:08;100741.94;;;12.52;100.00
38022;BME280;23832;43.216;27.946;2023-03-22T04:15:10;100745.84;;;12.41;100.00
38022;BME280;23832;43.216;27.946;2023-03-22T04:17:14;100751.16;;;12.41;100.00
38022;BME280;23832;43.216;27.946;2023-03-22T04:19:16;100749.25;;;12.49;100.00
38022;BME280;23832;43.216;27.946;2023-03-22T04:21:18;100751.88;;;12.49;100.00
38022;BME280;23832;43.216;27.946;2023-03-22T04:23:21;100748.13;;;12.44;100.00
38022;BME280;23832;43.216;27.946;2023-03-22T04:25:25;100720.59;;;12.24;100.00
38022;BME280;23832;43.216;27.946;2023-03-22T04:27:29;100743.38;;;12.54;100.00
38022;BME280;23832;43.216;27.946;2023-03-22T04:29:31;100745.50;;;12.59;100.00
38022;BME280;23832;43.216;27.946;2023-03-22T04:31:36;100751.59;;;12.59;100.00
38022;BME280;23832;43.216;27.946;2023-03-22T04:33:39;100753.44;;;12.59;100.00
38022;BME280;23832;43.216;27.946;2023-03-22T04:35:46;100753.16;;;12.54;100.00
38022;BME280;23832;43.216;27.946;2023-03-22T04:37:48;100755.50;;;12.48;100.00
38022;BME280;23832;43.216;27.946;2023-03-22T04:39:51;100748.22;;;12.50;100.00
38022;BME280;23832;43.216;27.946;2023-03-22T04:41:53;100748.94;;;12.44;100.00
38022;BME280;23832;43.216;27.946;2023-03-22T04:43:55;100754.88;;;12.46;100.00
38022;BME280;23832;43.216;27.946;2023-03-22T04:45:57;100758.81;;;12.50;100.00
38022;BME280;23832;43.216;27.946;2023-03-22T04:48:01;100752.59;;;12.43;100.00
38022;BME280;23832;43.216;27.946;2023-03-22T04:50:05;100758.72;;;12.44;100.00
38022;BME280;23832;43.216;27.946;2023-03-22T04:52:08;100756.25;;;12.42;100.00
38022;BME280;23832;43.216;27.946;2023-03-22T04:54:11;100758.97;;;12.34;100.00
38022;BME280;23832;43.216;27.946;2023-03-22T04:56:14;100771.28;;;12.42;100.00
38022;BME280;23832;43.216;27.946;2023-03-22T04:58:16;100767.53;;;12.36;100.00
38022;BME280;23832;43.216;27.946;2023-03-22T05:00:21;100762.00;;;12.31;100.00
38022;BME280;23832;43.216;27.946;2023-03-22T05:02:23;100759.34;;;12.31;100.00
38022;BME280;23832;43.216;27.946;2023-03-22T05:04:25;100761.50;;;12.28;100.00
38022;BME280;23832;43.216;27.946;2023-03-22T05:06:29;100720.56;;;12.09;100.00
38022;BME280;23832;43.216;27.946;2023-03-22T05:08:32;100762.22;;;12.07;100.00
38022;BME280;23832;43.216;27.946;2023-03-22T05:10:38;100765.25;;;12.18;100.00
38022;BME280;23832;43.216;27.946;2023-03-22T05:12:40;100757.06;;;12.43;100.00
38022;BME280;23832;43.216;27.946;2023-03-22T05:14:42;100755.69;;;12.47;100.00
38022;BME280;23832;43.216;27.946;2023-03-22T05:16:44;100752.75;;;12.27;100.00
38022;BME280;23832;43.216;27.946;2023-03-22T05:18:46;100757.41;;;12.25;100.00
38022;BME280;23832;43.216;27.946;2023-03-22T05:20:49;100727.13;;;11.98;100.00
38022;BME280;23832;43.216;27.946;2023-03-22T05:22:54;100759.69;;;12.28;100.00
38022;BME280;23832;43.216;27.946;2023-03-22T05:24:56;100763.44;;;12.48;100.00
38022;BME280;23832;43.216;27.946;2023-03-22T05:26:58;100764.81;;;12.44;100.00
38022;BME280;23832;43.216;27.946;2023-03-22T05:29:03;100770.53;;;12.48;100.00
38022;BME280;23832;43.216;27.946;2023-03-22T05:31:06;100764.09;;;12.50;100.00
38022;BME280;23832;43.216;27.946;2023-03-22T05:33:10;100764.81;;;12.59;100.00
38022;BME280;23832;43.216;27.946;2023-03-22T05:35:12;100766.72;;;12.65;100.00
38022;BME280;23832;43.216;27.946;2023-03-22T05:37:15;100775.13;;;12.69;100.00
38022;BME280;23832;43.216;27.946;2023-03-22T05:39:22;100771.28;;;12.57;100.00
38022;BME280;23832;43.216;27.946;2023-03-22T05:41:24;100770.91;;;12.45;100.00
38022;BME280;23832;43.216;27.946;2023-03-22T05:43:26;100774.47;;;12.23;100.00
38022;BME280;23832;43.216;27.946;2023-03-22T05:45:28;100783.81;;;12.10;100.00
38022;BME280;23832;43.216;27.946;2023-03-22T05:47:32;100786.50;;;11.87;100.00
38022;BME280;23832;43.216;27.946;2023-03-22T05:49:35;100776.09;;;11.86;100.00
38022;BME280;23832;43.216;27.946;2023-03-22T05:51:37;100784.88;;;11.78;100.00
38022;BME280;23832;43.216;27.946;2023-03-22T05:53:41;100787.50;;;11.86;100.00
38022;BME280;23832;43.216;27.946;2023-03-22T05:55:47;100778.84;;;11.92;100.00
38022;BME280;23832;43.216;27.946;2023-03-22T05:57:49;100774.06;;;12.11;100.00
38022;BME280;23832;43.216;27.946;2023-03-22T05:59:53;100773.72;;;12.29;100.00
38022;BME280;23832;43.216;27.946;2023-03-22T06:01:55;100768.56;;;11.98;100.00
38022;BME280;23832;43.216;27.946;2023-03-22T06:03:57;100769.00;;;11.86;100.00
38022;BME280;23832;43.216;27.946;2023-03-22T06:05:59;100768.81;;;11.88;100.00
38022;BME280;23832;43.216;27.946;2023-03-22T06:08:06;100766.41;;;11.78;100.00
38022;BME280;23832;43.216;27.946;2023-03-22T06:10:10;100781.59;;;11.76;100.00
38022;BME280;23832;43.216;27.946;2023-03-22T06:12:15;100779.34;;;11.65;100.00
38022;BME280;23832;43.216;27.946;2023-03-22T06:14:18;100782.06;;;11.57;100.00
38022;BME280;23832;43.216;27.946;2023-03-22T06:16:20;100775.91;;;11.64;100.00
38022;BME280;23832;43.216;27.946;2023-03-22T06:18:22;100774.19;;;11.49;100.00
38022;BME280;23832;43.216;27.946;2023-03-22T06:20:23;100774.66;;;11.75;100.00
38022;BME280;23832;43.216;27.946;2023-03-22T06:22:26;100755.06;;;11.92;100.00
38022;BME280;23832;43.216;27.946;2023-03-22T06:24:29;100764.22;;;12.05;100.00
38022;BME280;23832;43.216;27.946;2023-03-22T06:26:31;100799.78;;;12.17;100.00
38022;BME280;23832;43.216;27.946;2023-03-22T06:28:34;100755.25;;;12.58;100.00
38022;BME280;23832;43.216;27.946;2023-03-22T06:30:36;100755.75;;;12.98;100.00
38022;BME280;23832;43.216;27.946;2023-03-22T06:32:39;100767.97;;;12.99;100.00
38022;BME280;23832;43.216;27.946;2023-03-22T06:34:41;100768.81;;;12.85;100.00
38022;BME280;23832;43.216;27.946;2023-03-22T06:36:43;100780.59;;;12.53;100.00
38022;BME280;23832;43.216;27.946;2023-03-22T06:38:45;100787.59;;;12.45;100.00
38022;BME280;23832;43.216;27.946;2023-03-22T06:40:47;100796.50;;;12.15;100.00
38022;BME280;23832;43.216;27.946;2023-03-22T06:42:49;100803.19;;;12.26;100.00
38022;BME280;23832;43.216;27.946;2023-03-22T06:44:52;100803.09;;;12.48;100.00
38022;BME280;23832;43.216;27.946;2023-03-22T06:46:55;100802.47;;;12.91;100.00
38022;BME280;23832;43.216;27.946;2023-03-22T06:48:57;100797.91;;;12.85;100.00
38022;BME280;23832;43.216;27.946;2023-03-22T06:50:59;100799.44;;;13.08;100.00
38022;BME280;23832;43.216;27.946;2023-03-22T06:53:01;100801.47;;;13.06;100.00
38022;BME280;23832;43.216;27.946;2023-03-22T06:55:03;100815.06;;;13.03;100.00
38022;BME280;23832;43.216;27.946;2023-03-22T06:57:05;100809.97;;;13.53;100.00
38022;BME280;23832;43.216;27.946;2023-03-22T06:59:07;100807.50;;;13.73;100.00
38022;BME280;23832;43.216;27.946;2023-03-22T07:01:11;100809.41;;;13.57;100.00
38022;BME280;23832;43.216;27.946;2023-03-22T07:03:13;100816.97;;;13.82;100.00
38022;BME280;23832;43.216;27.946;2023-03-22T07:05:15;100824.03;;;13.53;100.00
38022;BME280;23832;43.216;27.946;2023-03-22T07:07:17;100823.06;;;14.25;100.00
38022;BME280;23832;43.216;27.946;2023-03-22T07:09:19;100827.38;;;14.05;100.00
38022;BME280;23832;43.216;27.946;2023-03-22T07:11:24;100822.72;;;13.85;100.00
38022;BME280;23832;43.216;27.946;2023-03-22T07:13:26;100815.34;;;14.30;100.00
38022;BME280;23832;43.216;27.946;2023-03-22T07:15:29;100819.63;;;13.82;100.00
38022;BME280;23832;43.216;27.946;2023-03-22T07:17:33;100825.19;;;13.87;100.00
38022;BME280;23832;43.216;27.946;2023-03-22T07:19:36;100826.66;;;14.17;100.00
38022;BME280;23832;43.216;27.946;2023-03-22T07:21:38;100834.38;;;14.12;100.00
38022;BME280;23832;43.216;27.946;2023-03-22T07:23:41;100825.78;;;14.32;100.00
38022;BME280;23832;43.216;27.946;2023-03-22T07:25:43;100835.63;;;14.16;100.00
38022;BME280;23832;43.216;27.946;2023-03-22T07:27:46;100827.81;;;14.08;100.00
38022;BME280;23832;43.216;27.946;2023-03-22T07:29:48;100824.47;;;14.00;100.00
38022;BME280;23832;43.216;27.946;2023-03-22T07:31:50;100823.53;;;14.07;100.00
38022;BME280;23832;43.216;27.946;2023-03-22T07:33:53;100829.56;;;14.01;100.00
38022;BME280;23832;43.216;27.946;2023-03-22T07:35:55;100833.03;;;14.02;100.00
38022;BME280;23832;43.216;27.946;2023-03-22T07:38:00;100825.66;;;14.18;100.00
38022;BME280;23832;43.216;27.946;2023-03-22T07:40:02;100825.19;;;14.36;100.00
38022;BME280;23832;43.216;27.946;2023-03-22T07:42:05;100822.38;;;14.72;100.00
38022;BME280;23832;43.216;27.946;2023-03-22T07:44:08;100829.06;;;14.62;100.00
38022;BME280;23832;43.216;27.946;2023-03-22T07:46:11;100826.25;;;14.42;100.00
38022;BME280;23832;43.216;27.946;2023-03-22T07:48:13;100843.28;;;14.47;100.00
38022;BME280;23832;43.216;27.946;2023-03-22T07:50:17;100840.34;;;14.70;100.00
38022;BME280;23832;43.216;27.946;2023-03-22T07:52:19;100841.78;;;14.73;100.00
38022;BME280;23832;43.216;27.946;2023-03-22T07:54:22;100845.34;;;14.31;100.00
38022;BME280;23832;43.216;27.946;2023-03-22T07:56:24;100839.00;;;14.53;100.00
38022;BME280;23832;43.216;27.946;2023-03-22T07:58:26;100837.16;;;14.54;100.00
38022;BME280;23832;43.216;27.946;2023-03-22T08:00:29;100845.09;;;14.75;100.00
38022;BME280;23832;43.216;27.946;2023-03-22T08:02:31;100834.13;;;14.85;100.00
38022;BME280;23832;43.216;27.946;2023-03-22T08:04:33;100843.75;;;14.64;100.00
38022;BME280;23832;43.216;27.946;2023-03-22T08:06:36;100831.97;;;14.73;100.00
38022;BME280;23832;43.216;27.946;2023-03-22T08:08:39;100842.94;;;14.57;100.00
38022;BME280;23832;43.216;27.946;2023-03-22T08:10:42;100837.88;;;14.41;100.00
38022;BME280;23832;43.216;27.946;2023-03-22T08:12:44;100843.56;;;14.38;100.00
38022;BME280;23832;43.216;27.946;2023-03-22T08:14:46;100842.44;;;14.47;100.00
38022;BME280;23832;43.216;27.946;2023-03-22T08:16:50;100842.25;;;14.27;100.00
38022;BME280;23832;43.216;27.946;2023-03-22T08:18:52;100844.75;;;14.35;100.00
38022;BME280;23832;43.216;27.946;2023-03-22T08:20:55;100851.72;;;14.64;100.00
38022;BME280;23832;43.216;27.946;2023-03-22T08:22:59;100849.72;;;14.66;100.00
38022;BME280;23832;43.216;27.946;2023-03-22T08:25:01;100849.75;;;14.45;100.00
38022;BME280;23832;43.216;27.946;2023-03-22T08:27:03;100855.94;;;14.52;100.00
38022;BME280;23832;43.216;27.946;2023-03-22T08:29:06;100861.09;;;14.60;100.00
38022;BME280;23832;43.216;27.946;2023-03-22T08:31:11;100860.09;;;14.40;100.00
38022;BME280;23832;43.216;27.946;2023-03-22T08:33:15;100866.66;;;14.65;100.00
38022;BME280;23832;43.216;27.946;2023-03-22T08:35:17;100869.06;;;14.60;100.00
38022;BME280;23832;43.216;27.946;2023-03-22T08:37:19;100863.63;;;15.03;100.00
38022;BME280;23832;43.216;27.946;2023-03-22T08:39:23;100856.66;;;15.02;100.00
38022;BME280;23832;43.216;27.946;2023-03-22T08:41:26;100900.88;;;14.88;100.00
38022;BME280;23832;43.216;27.946;2023-03-22T08:43:30;100866.03;;;14.98;100.00
38022;BME280;23832;43.216;27.946;2023-03-22T08:45:32;100883.56;;;14.64;100.00
38022;BME280;23832;43.216;27.946;2023-03-22T08:47:34;100867.25;;;14.39;100.00
38022;BME280;23832;43.216;27.946;2023-03-22T08:49:37;100883.94;;;14.12;100.00
38022;BME280;23832;43.216;27.946;2023-03-22T08:51:39;100884.19;;;14.17;100.00
38022;BME280;23832;43.216;27.946;2023-03-22T08:53:44;100896.09;;;14.28;100.00
38022;BME280;23832;43.216;27.946;2023-03-22T08:55:48;100893.53;;;14.13;100.00
38022;BME280;23832;43.216;27.946;2023-03-22T08:57:50;100893.19;;;13.80;100.00
38022;BME280;23832;43.216;27.946;2023-03-22T08:59:53;100897.50;;;13.30;100.00
38022;BME280;23832;43.216;27.946;2023-03-22T09:01:56;100907.22;;;13.00;100.00
38022;BME280;23832;43.216;27.946;2023-03-22T09:03:58;100908.25;;;13.43;100.00
38022;BME280;23832;43.216;27.946;2023-03-22T09:05:59;100901.69;;;13.24;100.00
38022;BME280;23832;43.216;27.946;2023-03-22T09:08:01;100900.84;;;13.39;100.00
38022;BME280;23832;43.216;27.946;2023-03-22T09:10:06;100920.47;;;13.44;100.00
38022;BME280;23832;43.216;27.946;2023-03-22T09:12:10;100914.59;;;13.63;100.00
38022;BME280;23832;43.216;27.946;2023-03-22T09:14:12;100919.31;;;13.32;100.00
38022;BME280;23832;43.216;27.946;2023-03-22T09:16:14;100927.50;;;13.07;100.00
38022;BME280;23832;43.216;27.946;2023-03-22T09:18:18;100912.97;;;13.18;100.00
38022;BME280;23832;43.216;27.946;2023-03-22T09:20:20;100924.22;;;13.20;100.00
38022;BME280;23832;43.216;27.946;2023-03-22T09:22:25;100932.44;;;13.55;100.00
38022;BME280;23832;43.216;27.946;2023-03-22T09:24:27;100933.09;;;13.42;100.00
38022;BME280;23832;43.216;27.946;2023-03-22T09:26:29;100936.25;;;13.08;100.00
38022;BME280;23832;43.216;27.946;2023-03-22T09:28:35;100935.41;;;12.78;100.00
38022;BME280;23832;43.216;27.946;2023-03-22T09:30:37;100940.78;;;12.85;100.00
38022;BME280;23832;43.216;27.946;2023-03-22T09:32:40;100947.06;;;12.69;100.00
38022;BME280;23832;43.216;27.946;2023-03-22T09:34:42;100947.19;;;12.53;100.00
38022;BME280;23832;43.216;27.946;2023-03-22T09:36:45;100986.88;;;12.53;100.00
38022;BME280;23832;43.216;27.946;2023-03-22T09:38:47;100951.69;;;12.67;100.00
38022;BME280;23832;43.216;27.946;2023-03-22T09:40:51;100950.59;;;12.38;100.00
38022;BME280;23832;43.216;27.946;2023-03-22T09:43:01;100957.91;;;12.13;100.00
38022;BME280;23832;43.216;27.946;2023-03-22T09:45:11;100962.13;;;12.23;100.00
38022;BME280;23832;43.216;27.946;2023-03-22T09:47:16;100956.84;;;12.45;100.00
38022;BME280;23832;43.216;27.946;2023-03-22T09:49:22;100959.41;;;12.54;100.00
38022;BME280;23832;43.216;27.946;2023-03-22T09:51:32;101001.91;;;11.98;100.00
38022;BME280;23832;43.216;27.946;2023-03-22T09:53:37;100966.28;;;11.86;100.00
38022;BME280;23832;43.216;27.946;2023-03-22T09:55:43;100969.47;;;11.73;100.00
38022;BME280;23832;43.216;27.946;2023-03-22T09:57:52;100983.63;;;12.19;100.00
38022;BME280;23832;43.216;27.946;2023-03-22T10:00:02;100974.97;;;12.48;100.00
38022;BME280;23832;43.216;27.946;2023-03-22T10:02:42;100979.59;;;12.01;100.00
38022;BME280;23832;43.216;27.946;2023-03-22T10:04:50;100981.75;;;11.50;100.00
38022;BME280;23832;43.216;27.946;2023-03-22T10:07:05;100984.31;;;11.74;100.00
38022;BME280;23832;43.216;27.946;2023-03-22T10:09:13;100984.81;;;11.78;100.00
38022;BME280;23832;43.216;27.946;2023-03-22T10:11:23;100982.66;;;12.12;100.00
38022;BME280;23832;43.216;27.946;2023-03-22T10:13:31;100966.59;;;12.45;100.00
38022;BME280;23832;43.216;27.946;2023-03-22T10:15:37;100975.50;;;12.21;100.00
38022;BME280;23832;43.216;27.946;2023-03-22T10:17:45;100994.28;;;12.34;100.00
38022;BME280;23832;43.216;27.946;2023-03-22T10:19:52;100972.75;;;12.37;100.00
38022;BME280;23832;43.216;27.946;2023-03-22T10:21:58;100974.66;;;11.98;100.00
38022;BME280;23832;43.216;27.946;2023-03-22T10:24:05;100976.03;;;11.85;100.00
38022;BME280;23832;43.216;27.946;2023-03-22T10:26:17;100981.13;;;11.40;100.00
38022;BME280;23832;43.216;27.946;2023-03-22T10:28:24;100990.78;;;11.24;100.00
38022;BME280;23832;43.216;27.946;2023-03-22T10:30:31;100983.69;;;11.80;100.00
38022;BME280;23832;43.216;27.946;2023-03-22T10:32:40;100974.19;;;11.94;100.00
38022;BME280;23832;43.216;27.946;2023-03-22T10:34:45;100977.78;;;12.01;100.00
38022;BME280;23832;43.216;27.946;2023-03-22T10:36:50;100976.31;;;11.99;100.00